East Peoria, IL

9:10 AM CDT on May 24, 2015 (GMT -0500)
Greater Peoria Regional | | Change Station
CLOSE
Current Station
Airport
Location: Peoria,
Elevation: 663 ft
Nearby Weather Stations

Elev 663 ft 40.67 °N, 89.68 °W | Updated 16 minutes ago

Mostly Cloudy
Mostly Cloudy
70 °F
Feels Like 70 °F
N
7
Wind Variable Wind from SE

Today
High -- | Low -- °F
--% Chance of Precip.
Yesterday
High -- | Low -- °F
Precip. -- in
5:33 AM 8:16 PM
Waxing Crescent, 39% visible
Pressure 30.09 in
Visibility 10.0 miles
Clouds Scattered Clouds 5500 ft
Dew Point 54 °F
Humidity 57%
Rainfall 0.01 in
Snow Depth Not available.
UV 3 out of 12
Pollen 7.90 out of 12
Air Quality Not available.
Flu Activity Sporadic
METAR KPIA 241354Z 13006KT 10SM SCT055 21/12 A3009 RMK AO2 SLP187 T02110122

More Conditions Fewer Conditions

Pressure 30.09 in
Visibility 10.0 miles
Clouds Scattered Clouds 5500 ft
Dew Point 54 °F
Humidity 57%
Rainfall 0.01 in
Snow Depth Not available.
UV 3 out of 12
Pollen 7.90 out of 12
Air Quality Not available.
Flu Activity Sporadic
METAR KPIA 241354Z 13006KT 10SM SCT055 21/12 A3009 RMK AO2 SLP187 T02110122

More Conditions Fewer Conditions

10-Day Weather Forecast

Almanac

Astronomy

May. 24, 2015 Rise Set
Actual Time
Civil Twilight
Nautical Twilight
Astronomical Twilight
Moon
Length of Visible Light
Length of Day
Tomorrow will be .
, % of the Moon is Illuminated

Today's Extremes

State Highs State Lows

Community

WunderPhotos

Upload Photos

1,823,745 photos uploaded!

WunderBlogs® & News

Nearby

Air Quality

  Air Quality AQ Index Pollutant
Not available.

Snow Depth

Station Depth Elevation

Earthquake Activity

City Distance Mag. Time & Date
Minimum magnitude displayed is 2.5.

Coastal Water Temperatures

Place Temperature

Stations

Nearby Weather Stations

Station Location Temp. Windchill Dew Point Humidity Wind Precip. Elev Updated Type